Time;durP1;ratioP1;P1;durP2;ratioP2;P2;SDS_P1;SDS_P2;PMS_P1;PMS_P2;Temp;Humidity;BMP_temperature;BMP_pressure;BME280_temperature;BME280_humidity;BME280_pressure;Samples;Min_cycle;Max_cycle;Signal;HPM_P1;HPM_P2
2023/08/18 00:00:06;;;;;;;;;;;;;;;;;;4963229;28;89920;-63
2023/08/18 00:02:32;;;;;;;;;;;;;;;;;;4955931;28;89793;-68
2023/08/18 00:04:57;;;;;;;;;;;;;;;;;;4959757;28;89721;-65
2023/08/18 00:07:23;;;;;;;;;;;;;;;;;;4958189;28;89377;-70
2023/08/18 00:09:48;;;;;;;;;;;;;;;;;;4962275;28;89553;-65
2023/08/18 00:12:13;;;;;;;;;;;;;;;;;;4961404;28;90581;-69
2023/08/18 00:14:38;;;;;;;;;;;;;;;;;;4963200;28;89861;-73
2023/08/18 00:17:04;;;;;;;;;;;;;;;;;;4960158;28;89310;-71
2023/08/18 00:19:30;;;;;;;;;;;;;;;;;;4964710;28;90627;-67
2023/08/18 00:21:55;;;;;;;;;;;;;;;;;;4956844;28;89506;-66
2023/08/18 00:24:20;;;;;;;;;;;;;;;;;;4960380;28;89324;-65
2023/08/18 00:26:45;;;;;;;;;;;;;;;;;;4963718;28;90378;-63
2023/08/18 00:29:11;;;;;;;;;;;;;;;;;;4961480;28;91124;-69
2023/08/18 00:31:36;;;;;;;;;;;;;;;;;;4962071;28;89695;-75
2023/08/18 00:34:01;;;;;;;;;;;;;;;;;;4964039;28;89467;-65
2023/08/18 00:36:27;;;;;;;;;;;;;;;;;;4951215;28;89479;-69
2023/08/18 00:38:53;;;;;;;;;;;;;;;;;;4956094;28;89519;-65
2023/08/18 00:41:18;;;;;;;;;;;;;;;;;;4962603;28;89633;-68
2023/08/18 00:43:43;;;;;;;;;;;;;;;;;;4959966;28;89061;-74
2023/08/18 00:46:09;;;;;;;;;;;;;;;;;;4951332;28;89132;-68
2023/08/18 00:48:35;;;;;;;;;;;;;;;;;;4961258;28;90847;-63
2023/08/18 00:51:01;;;;;;;;;;;;;;;;;;4959719;28;89671;-62
2023/08/18 00:53:27;;;;;;;;;;;;;;;;;;4956809;28;89423;-72
2023/08/18 00:55:52;;;;;;;;;;;;;;;;;;4959167;28;90195;-68
2023/08/18 00:58:17;;;;;;;;;;;;;;;;;;4956207;28;89710;-62
2023/08/18 01:00:44;;;;;;;;;;;;;;;;;;4958199;28;89765;-68
2023/08/18 01:03:09;;;;;;;;;;;;;;;;;;4958249;28;89774;-65
2023/08/18 01:05:35;;;;;;;;;;;;;;;;;;4957500;28;89390;-63
2023/08/18 01:08:00;;;;;;;;;;;;;;;;;;4957362;28;89701;-68
2023/08/18 01:10:27;;;;;;;;;;;;;;;;;;4962133;28;89791;-70
2023/08/18 01:13:11;;;;;;;;;;;;;;;;;;4957030;28;89391;-73
2023/08/18 01:15:38;;;;;;;;;;;;;;;;;;4961938;28;89496;-75
2023/08/18 01:18:04;;;;;;;;;;;;;;;;;;4960840;28;89691;-73
2023/08/18 01:20:30;;;;;;;;;;;;;;;;;;4962361;28;89527;-73
2023/08/18 01:22:59;;;;;;;;;;;;;;;;;;4957596;28;92030;-69
2023/08/18 01:25:24;;;;;;;;;;;;;;;;;;4952653;28;89486;-71
2023/08/18 01:27:50;;;;;;;;;;;;;;;;;;4963335;28;89526;-66
2023/08/18 01:30:16;;;;;;;;;;;;;;;;;;4974696;28;90077;-67
2023/08/18 01:32:49;;;;;;;;;;;;;;;;;;4954033;28;89112;-66
2023/08/18 01:35:15;;;;;;;;;;;;;;;;;;4960642;28;89511;-65
2023/08/18 01:37:42;;;;;;;;;;;;;;;;;;4962538;28;89620;-76
2023/08/18 01:40:09;;;;;;;;;;;;;;;;;;4961983;28;90689;-64
2023/08/18 01:42:35;;;;;;;;;;;;;;;;;;4960332;28;90593;-76
2023/08/18 01:45:02;;;;;;;;;;;;;;;;;;4957402;28;89677;-68
2023/08/18 01:47:27;;;;;;;;;;;;;;;;;;4955902;28;90640;-76
2023/08/18 01:49:52;;;;;;;;;;;;;;;;;;4960874;28;91169;-69
2023/08/18 01:52:17;;;;;;;;;;;;;;;;;;4957340;28;89097;-72
2023/08/18 01:54:42;;;;;;;;;;;;;;;;;;4954423;28;89566;-69
2023/08/18 01:57:08;;;;;;;;;;;;;;;;;;4957726;28;89389;-75
2023/08/18 01:59:34;;;;;;;;;;;;;;;;;;4961128;28;89063;-66
2023/08/18 02:01:59;;;;;;;;;;;;;;;;;;4956688;28;89920;-70
2023/08/18 02:04:24;;;;;;;;;;;;;;;;;;4958281;28;91234;-61
2023/08/18 02:06:49;;;;;;;;;;;;;;;;;;4956866;28;89871;-65
2023/08/18 02:09:15;;;;;;;;;;;;;;;;;;4954113;28;90231;-63
2023/08/18 02:11:40;;;;;;;;;;;;;;;;;;4957792;28;89057;-69
2023/08/18 02:14:05;;;;;;;;;;;;;;;;;;4957729;28;90567;-74
2023/08/18 02:16:30;;;;;;;;;;;;;;;;;;4957290;28;89825;-73
2023/08/18 02:18:55;;;;;;;;;;;;;;;;;;4963699;28;89589;-74
2023/08/18 02:21:21;;;;;;;;;;;;;;;;;;4961981;28;90420;-72
2023/08/18 02:23:46;;;;;;;;;;;;;;;;;;4955288;28;89486;-76
2023/08/18 02:26:11;;;;;;;;;;;;;;;;;;4953287;28;89606;-74
2023/08/18 02:28:36;;;;;;;;;;;;;;;;;;4959307;28;89775;-74
2023/08/18 02:31:06;;;;;;;;;;;;;;;;;;4952486;28;89443;-66
2023/08/18 02:33:32;;;;;;;;;;;;;;;;;;4959153;28;89529;-64
2023/08/18 02:35:59;;;;;;;;;;;;;;;;;;4956621;28;89260;-65
2023/08/18 02:38:24;;;;;;;;;;;;;;;;;;4954717;28;90005;-74
2023/08/18 02:40:49;;;;;;;;;;;;;;;;;;4958597;28;89612;-75
2023/08/18 02:43:15;;;;;;;;;;;;;;;;;;4957829;28;89116;-71
2023/08/18 02:45:40;;;;;;;;;;;;;;;;;;4958387;28;90637;-75
2023/08/18 02:48:06;;;;;;;;;;;;;;;;;;4958674;28;90384;-74
2023/08/18 02:50:31;;;;;;;;;;;;;;;;;;4953802;28;89104;-76
2023/08/18 02:53:00;;;;;;;;;;;;;;;;;;4960850;28;89146;-75
2023/08/18 02:55:25;;;;;;;;;;;;;;;;;;4956380;28;90366;-72
2023/08/18 02:57:51;;;;;;;;;;;;;;;;;;4955385;28;90378;-73
2023/08/18 03:00:16;;;;;;;;;;;;;;;;;;4959576;28;89707;-66
2023/08/18 03:02:41;;;;;;;;;;;;;;;;;;4957312;28;89927;-72
2023/08/18 03:05:07;;;;;;;;;;;;;;;;;;4965938;28;89027;-73
2023/08/18 03:07:32;;;;;;;;;;;;;;;;;;4952638;28;89882;-68
2023/08/18 03:09:57;;;;;;;;;;;;;;;;;;4957445;28;89570;-67
2023/08/18 03:12:22;;;;;;;;;;;;;;;;;;4958488;28;89529;-62
2023/08/18 03:14:48;;;;;;;;;;;;;;;;;;4955628;28;91604;-73
2023/08/18 03:17:13;;;;;;;;;;;;;;;;;;4952794;28;90277;-64
2023/08/18 03:19:38;;;;;;;;;;;;;;;;;;4963397;28;89635;-61
2023/08/18 03:22:04;;;;;;;;;;;;;;;;;;4963930;28;89609;-76
2023/08/18 03:24:29;;;;;;;;;;;;;;;;;;4961343;28;90570;-64
2023/08/18 03:26:54;;;;;;;;;;;;;;;;;;4959358;28;89633;-73
2023/08/18 03:29:20;;;;;;;;;;;;;;;;;;4964678;28;89082;-73
2023/08/18 03:31:45;;;;;;;;;;;;;;;;;;4963139;28;90427;-64
2023/08/18 03:34:10;;;;;;;;;;;;;;;;;;4960198;28;90217;-63
2023/08/18 03:36:35;;;;;;;;;;;;;;;;;;4961786;28;89086;-63
2023/08/18 03:39:01;;;;;;;;;;;;;;;;;;4961193;28;89628;-62
2023/08/18 03:41:26;;;;;;;;;;;;;;;;;;4958841;28;89462;-68
2023/08/18 03:43:51;;;;;;;;;;;;;;;;;;4956879;28;89494;-77
2023/08/18 03:46:21;;;;;;;;;;;;;;;;;;4955475;28;89487;-62
2023/08/18 03:48:46;;;;;;;;;;;;;;;;;;4954086;28;90016;-62
2023/08/18 03:51:11;;;;;;;;;;;;;;;;;;4953273;28;89626;-77
2023/08/18 03:53:37;;;;;;;;;;;;;;;;;;4962280;28;89241;-69
2023/08/18 03:56:02;;;;;;;;;;;;;;;;;;4960202;28;90472;-74
2023/08/18 03:58:27;;;;;;;;;;;;;;;;;;4951988;28;89527;-75
2023/08/18 04:01:04;;;;;;;;;;;;;;;;;;4959217;28;90001;-77
2023/08/18 04:03:30;;;;;;;;;;;;;;;;;;4950827;28;90003;-70
2023/08/18 04:05:55;;;;;;;;;;;;;;;;;;4954563;28;89806;-69
2023/08/18 04:08:20;;;;;;;;;;;;;;;;;;4962253;28;89603;-68
2023/08/18 04:10:45;;;;;;;;;;;;;;;;;;4959212;28;89577;-63
2023/08/18 04:13:11;;;;;;;;;;;;;;;;;;4958624;28;89183;-68
2023/08/18 04:15:36;;;;;;;;;;;;;;;;;;4959570;28;89409;-70
2023/08/18 04:18:01;;;;;;;;;;;;;;;;;;4961346;28;90493;-66
2023/08/18 04:20:26;;;;;;;;;;;;;;;;;;4958251;28;89656;-69
2023/08/18 04:22:51;;;;;;;;;;;;;;;;;;4960592;28;89563;-76
2023/08/18 04:25:17;;;;;;;;;;;;;;;;;;4958904;28;89694;-76
2023/08/18 04:27:42;;;;;;;;;;;;;;;;;;4961419;28;89856;-76
2023/08/18 04:30:08;;;;;;;;;;;;;;;;;;4959589;28;89116;-75
2023/08/18 04:32:33;;;;;;;;;;;;;;;;;;4955500;28;89564;-76
2023/08/18 04:34:59;;;;;;;;;;;;;;;;;;4962509;28;89856;-75
2023/08/18 04:37:24;;;;;;;;;;;;;;;;;;4955523;28;89563;-76
2023/08/18 04:39:51;;;;;;;;;;;;;;;;;;4954378;28;89191;-76
2023/08/18 04:42:16;;;;;;;;;;;;;;;;;;4959341;28;89716;-66
2023/08/18 04:44:41;;;;;;;;;;;;;;;;;;4959071;28;90576;-77
2023/08/18 04:47:07;;;;;;;;;;;;;;;;;;4962985;28;90106;-69
2023/08/18 04:49:32;;;;;;;;;;;;;;;;;;4959162;28;89445;-73
2023/08/18 04:51:57;;;;;;;;;;;;;;;;;;4959574;28;89534;-76
2023/08/18 04:54:23;;;;;;;;;;;;;;;;;;4959114;28;89729;-76
2023/08/18 04:56:48;;;;;;;;;;;;;;;;;;4963603;28;90619;-74
2023/08/18 04:59:13;;;;;;;;;;;;;;;;;;4961304;28;89278;-73
2023/08/18 05:01:38;;;;;;;;;;;;;;;;;;4957720;28;89259;-75
2023/08/18 05:04:04;;;;;;;;;;;;;;;;;;4964551;28;89491;-76
2023/08/18 05:06:29;;;;;;;;;;;;;;;;;;4958599;28;89631;-65
2023/08/18 05:08:54;;;;;;;;;;;;;;;;;;4961459;28;89526;-70
2023/08/18 05:11:20;;;;;;;;;;;;;;;;;;4954057;28;89683;-62
2023/08/18 05:13:45;;;;;;;;;;;;;;;;;;4961584;28;90264;-63
2023/08/18 05:16:10;;;;;;;;;;;;;;;;;;4963554;28;89672;-66
2023/08/18 05:18:36;;;;;;;;;;;;;;;;;;4958619;28;89639;-62
2023/08/18 05:21:02;;;;;;;;;;;;;;;;;;4957968;28;89340;-72
2023/08/18 05:23:28;;;;;;;;;;;;;;;;;;4957102;28;90812;-64
2023/08/18 05:25:56;;;;;;;;;;;;;;;;;;4970197;28;89559;-63
2023/08/18 05:28:23;;;;;;;;;;;;;;;;;;4956002;28;89364;-78
2023/08/18 05:30:48;;;;;;;;;;;;;;;;;;4955671;28;91296;-66
2023/08/18 05:33:14;;;;;;;;;;;;;;;;;;4965848;28;89583;-63
2023/08/18 05:35:39;;;;;;;;;;;;;;;;;;4961362;28;89607;-65
2023/08/18 05:38:10;;;;;;;;;;;;;;;;;;4952009;28;90571;-71
2023/08/18 05:40:40;;;;;;;;;;;;;;;;;;4953792;28;89803;-81
2023/08/18 05:43:05;;;;;;;;;;;;;;;;;;4953592;28;90686;-68
2023/08/18 05:45:31;;;;;;;;;;;;;;;;;;4956600;28;89679;-69
2023/08/18 05:47:56;;;;;;;;;;;;;;;;;;4951810;28;89707;-64
2023/08/18 05:50:21;;;;;;;;;;;;;;;;;;4956568;28;90090;-67
2023/08/18 05:52:46;;;;;;;;;;;;;;;;;;4952921;28;89482;-66
2023/08/18 05:55:11;;;;;;;;;;;;;;;;;;4961239;28;89508;-64
2023/08/18 05:57:41;;;;;;;;;;;;;;;;;;4956964;28;89062;-63
2023/08/18 06:00:06;;;;;;;;;;;;;;;;;;4951937;28;89589;-71
2023/08/18 06:02:32;;;;;;;;;;;;;;;;;;4952715;28;89546;-65
2023/08/18 06:04:58;;;;;;;;;;;;;;;;;;4958834;28;90216;-64
2023/08/18 06:07:23;;;;;;;;;;;;;;;;;;4954424;28;89559;-64
2023/08/18 06:09:48;;;;;;;;;;;;;;;;;;4951983;28;90727;-72
2023/08/18 06:12:13;;;;;;;;;;;;;;;;;;4953019;28;89849;-74
2023/08/18 06:14:39;;;;;;;;;;;;;;;;;;4954778;28;89585;-75
2023/08/18 06:17:04;;;;;;;;;;;;;;;;;;4954413;28;90125;-74
2023/08/18 06:19:29;;;;;;;;;;;;;;;;;;4953534;28;90007;-73
2023/08/18 06:21:54;;;;;;;;;;;;;;;;;;4959026;28;89641;-73
2023/08/18 06:24:19;;;;;;;;;;;;;;;;;;4966657;28;90336;-71
2023/08/18 06:26:45;;;;;;;;;;;;;;;;;;4954562;28;89828;-75
2023/08/18 06:29:10;;;;;;;;;;;;;;;;;;4969302;28;90221;-65
2023/08/18 06:31:36;;;;;;;;;;;;;;;;;;4954966;28;90921;-71
2023/08/18 06:34:01;;;;;;;;;;;;;;;;;;4957379;28;89909;-76
2023/08/18 06:36:26;;;;;;;;;;;;;;;;;;4954147;28;90995;-69
2023/08/18 06:38:51;;;;;;;;;;;;;;;;;;4959292;28;90138;-71
2023/08/18 06:41:16;;;;;;;;;;;;;;;;;;4968823;28;90725;-69
2023/08/18 06:43:42;;;;;;;;;;;;;;;;;;4953791;28;89903;-74
2023/08/18 06:46:07;;;;;;;;;;;;;;;;;;4955096;28;89664;-75
2023/08/18 06:48:32;;;;;;;;;;;;;;;;;;4953250;28;89807;-72
2023/08/18 06:50:57;;;;;;;;;;;;;;;;;;4957812;28;89801;-68
2023/08/18 06:53:23;;;;;;;;;;;;;;;;;;4953011;28;89318;-66
2023/08/18 06:55:49;;;;;;;;;;;;;;;;;;4957231;28;90306;-72
2023/08/18 06:58:14;;;;;;;;;;;;;;;;;;4960881;28;90015;-72
2023/08/18 07:00:39;;;;;;;;;;;;;;;;;;4966112;28;90528;-75
2023/08/18 07:03:05;;;;;;;;;;;;;;;;;;4955368;28;90748;-74
2023/08/18 07:05:30;;;;;;;;;;;;;;;;;;4957419;28;90079;-68
2023/08/18 07:07:55;;;;;;;;;;;;;;;;;;4965721;28;89035;-74
2023/08/18 07:10:21;;;;;;;;;;;;;;;;;;4955585;28;90256;-72
2023/08/18 07:12:46;;;;;;;;;;;;;;;;;;4960251;28;89362;-74
2023/08/18 07:15:11;;;;;;;;;;;;;;;;;;4958678;28;89483;-70
2023/08/18 07:17:36;;;;;;;;;;;;;;;;;;4957282;28;89608;-64
2023/08/18 07:20:04;;;;;;;;;;;;;;;;;;4958227;28;89165;-66
2023/08/18 07:22:29;;;;;;;;;;;;;;;;;;4961312;28;90691;-62
2023/08/18 07:24:54;;;;;;;;;;;;;;;;;;4971887;28;89753;-65
2023/08/18 07:27:19;;;;;;;;;;;;;;;;;;4957580;28;90844;-68
2023/08/18 07:29:44;;;;;;;;;;;;;;;;;;4964067;28;89246;-65
2023/08/18 07:32:10;;;;;;;;;;;;;;;;;;4962698;28;89609;-65
2023/08/18 07:34:36;;;;;;;;;;;;;;;;;;4962724;28;90592;-68
2023/08/18 07:37:01;;;;;;;;;;;;;;;;;;4960987;28;90755;-73
2023/08/18 07:39:26;;;;;;;;;;;;;;;;;;4958116;28;89830;-62
2023/08/18 07:41:52;;;;;;;;;;;;;;;;;;4961971;28;89509;-64
2023/08/18 07:44:17;;;;;;;;;;;;;;;;;;4959433;28;89985;-72
2023/08/18 07:46:42;;;;;;;;;;;;;;;;;;4959701;28;89489;-70
2023/08/18 07:49:07;;;;;;;;;;;;;;;;;;4959366;28;91280;-65
2023/08/18 07:51:33;;;;;;;;;;;;;;;;;;4959074;28;89428;-70
2023/08/18 07:53:58;;;;;;;;;;;;;;;;;;4957607;28;90976;-76
2023/08/18 07:56:24;;;;;;;;;;;;;;;;;;4963132;28;89690;-75
2023/08/18 07:58:49;;;;;;;;;;;;;;;;;;4955615;28;90655;-64
2023/08/18 08:01:14;;;;;;;;;;;;;;;;;;4957658;28;91703;-64
2023/08/18 08:03:40;;;;;;;;;;;;;;;;;;4961546;28;90171;-65
2023/08/18 08:06:05;;;;;;;;;;;;;;;;;;4960109;28;89985;-65
2023/08/18 08:08:30;;;;;;;;;;;;;;;;;;4959771;28;90134;-67
2023/08/18 08:10:56;;;;;;;;;;;;;;;;;;4951918;28;89261;-70
2023/08/18 08:13:21;;;;;;;;;;;;;;;;;;4955447;28;89600;-65
2023/08/18 08:15:47;;;;;;;;;;;;;;;;;;4956957;28;90068;-64
2023/08/18 08:18:13;;;;;;;;;;;;;;;;;;4953494;28;89846;-67
2023/08/18 08:20:39;;;;;;;;;;;;;;;;;;4953430;28;90988;-71
2023/08/18 08:23:04;;;;;;;;;;;;;;;;;;4967693;28;90800;-74
2023/08/18 08:25:30;;;;;;;;;;;;;;;;;;4959205;28;89091;-73
2023/08/18 08:27:55;;;;;;;;;;;;;;;;;;4954380;28;89641;-76
2023/08/18 08:30:20;;;;;;;;;;;;;;;;;;4957028;28;90004;-71
2023/08/18 08:32:46;;;;;;;;;;;;;;;;;;4959929;28;89590;-74
2023/08/18 08:35:11;;;;;;;;;;;;;;;;;;4955877;28;89520;-74
2023/08/18 08:37:36;;;;;;;;;;;;;;;;;;4954597;28;89248;-73
2023/08/18 08:40:01;;;;;;;;;;;;;;;;;;4956566;28;89465;-71
2023/08/18 08:42:27;;;;;;;;;;;;;;;;;;4955980;28;89240;-76
2023/08/18 08:44:52;;;;;;;;;;;;;;;;;;4961461;28;89550;-75
2023/08/18 08:47:17;;;;;;;;;;;;;;;;;;4955378;28;90202;-74
2023/08/18 08:49:43;;;;;;;;;;;;;;;;;;4956631;28;89586;-75
2023/08/18 08:52:10;;;;;;;;;;;;;;;;;;4953209;28;89782;-72
2023/08/18 08:54:39;;;;;;;;;;;;;;;;;;4959057;28;89370;-74
2023/08/18 08:57:07;;;;;;;;;;;;;;;;;;4952774;28;89505;-75
2023/08/18 08:59:33;;;;;;;;;;;;;;;;;;4955158;28;89459;-67
2023/08/18 09:01:58;;;;;;;;;;;;;;;;;;4956273;28;89996;-73
2023/08/18 09:04:23;;;;;;;;;;;;;;;;;;4957249;28;89163;-66
2023/08/18 09:06:49;;;;;;;;;;;;;;;;;;4958935;28;91035;-71
2023/08/18 09:09:14;;;;;;;;;;;;;;;;;;4961440;28;89654;-68
2023/08/18 09:11:42;;;;;;;;;;;;;;;;;;4961041;28;89733;-82
2023/08/18 09:14:08;;;;;;;;;;;;;;;;;;4954651;28;90232;-78
2023/08/18 09:16:33;;;;;;;;;;;;;;;;;;4958800;28;89525;-69
2023/08/18 09:18:59;;;;;;;;;;;;;;;;;;4958691;28;90335;-77
2023/08/18 09:21:24;;;;;;;;;;;;;;;;;;4952685;28;89648;-79
2023/08/18 09:23:56;;;;;;;;;;;;;;;;;;4953204;28;91805;-80
2023/08/18 09:26:21;;;;;;;;;;;;;;;;;;4959375;28;90622;-77
2023/08/18 09:28:46;;;;;;;;;;;;;;;;;;4956438;28;89100;-69
2023/08/18 09:31:12;;;;;;;;;;;;;;;;;;4952948;28;89551;-74
2023/08/18 09:33:37;;;;;;;;;;;;;;;;;;4960500;28;91587;-65
2023/08/18 09:36:03;;;;;;;;;;;;;;;;;;4958633;28;89827;-67
2023/08/18 09:38:29;;;;;;;;;;;;;;;;;;4958411;28;90988;-71
2023/08/18 09:40:58;;;;;;;;;;;;;;;;;;4955487;28;89685;-66
2023/08/18 09:43:24;;;;;;;;;;;;;;;;;;4953764;28;89946;-70
2023/08/18 09:45:51;;;;;;;;;;;;;;;;;;4956034;28;90302;-70
2023/08/18 09:48:18;;;;;;;;;;;;;;;;;;4957349;28;89195;-66
2023/08/18 09:50:47;;;;;;;;;;;;;;;;;;4954094;28;89459;-72
2023/08/18 09:53:14;;;;;;;;;;;;;;;;;;4954256;28;90074;-69
2023/08/18 09:55:43;;;;;;;;;;;;;;;;;;4954306;28;89570;-67
2023/08/18 09:58:16;;;;;;;;;;;;;;;;;;4954882;28;90583;-75
2023/08/18 10:00:43;;;;;;;;;;;;;;;;;;4970715;28;92359;-82
2023/08/18 10:03:12;;;;;;;;;;;;;;;;;;4951989;28;89192;-81
2023/08/18 10:05:37;;;;;;;;;;;;;;;;;;4952669;28;89654;-64
2023/08/18 10:08:03;;;;;;;;;;;;;;;;;;4959435;28;89849;-67
2023/08/18 10:10:28;;;;;;;;;;;;;;;;;;4951476;28;89152;-66
2023/08/18 10:12:54;;;;;;;;;;;;;;;;;;4958882;28;89518;-69
2023/08/18 10:15:20;;;;;;;;;;;;;;;;;;4956227;28;89509;-69
2023/08/18 10:17:46;;;;;;;;;;;;;;;;;;4956856;28;90809;-68
2023/08/18 10:20:11;;;;;;;;;;;;;;;;;;4954388;28;89804;-66
2023/08/18 10:22:37;;;;;;;;;;;;;;;;;;4957498;28;91159;-77
2023/08/18 10:25:04;;;;;;;;;;;;;;;;;;4957132;28;89550;-67
2023/08/18 10:27:29;;;;;;;;;;;;;;;;;;4959577;28;90332;-65
2023/08/18 10:30:02;;;;;;;;;;;;;;;;;;4993461;28;90784;-64
2023/08/18 10:32:29;;;;;;;;;;;;;;;;;;4953678;28;89743;-69
2023/08/18 10:35:13;;;;;;;;;;;;;;;;;;4963347;28;89275;-66
2023/08/18 10:37:41;;;;;;;;;;;;;;;;;;4962900;28;89537;-67
2023/08/18 10:40:08;;;;;;;;;;;;;;;;;;4954457;28;90319;-67
2023/08/18 10:42:33;;;;;;;;;;;;;;;;;;4956100;28;89627;-76
2023/08/18 10:45:03;;;;;;;;;;;;;;;;;;4954933;28;89700;-74
2023/08/18 10:47:32;;;;;;;;;;;;;;;;;;4956942;28;89375;-76
2023/08/18 10:50:04;;;;;;;;;;;;;;;;;;4949524;28;90267;-80
2023/08/18 10:52:29;;;;;;;;;;;;;;;;;;4952156;28;89581;-82
2023/08/18 10:54:55;;;;;;;;;;;;;;;;;;4955398;28;89256;-82
2023/08/18 10:57:20;;;;;;;;;;;;;;;;;;4975116;28;89932;-79
2023/08/18 10:59:45;;;;;;;;;;;;;;;;;;4958107;28;90492;-79
2023/08/18 11:02:11;;;;;;;;;;;;;;;;;;4956011;28;89846;-76
2023/08/18 11:04:36;;;;;;;;;;;;;;;;;;4960987;28;89630;-84
2023/08/18 11:07:01;;;;;;;;;;;;;;;;;;4957244;28;89272;-81
2023/08/18 11:09:27;;;;;;;;;;;;;;;;;;4953840;28;89030;-83
2023/08/18 11:11:52;;;;;;;;;;;;;;;;;;4955309;28;90823;-79
2023/08/18 11:14:18;;;;;;;;;;;;;;;;;;4952943;28;90584;-71
2023/08/18 11:16:43;;;;;;;;;;;;;;;;;;4954836;28;90604;-80
2023/08/18 11:19:08;;;;;;;;;;;;;;;;;;4957705;28;89760;-76
2023/08/18 11:21:34;;;;;;;;;;;;;;;;;;4956175;28;89863;-73
2023/08/18 11:23:59;;;;;;;;;;;;;;;;;;4959728;28;89551;-76
2023/08/18 11:26:25;;;;;;;;;;;;;;;;;;4956972;28;89215;-79
2023/08/18 11:28:50;;;;;;;;;;;;;;;;;;4970551;28;89592;-77
2023/08/18 11:31:15;;;;;;;;;;;;;;;;;;4955825;28;89691;-77
2023/08/18 11:33:41;;;;;;;;;;;;;;;;;;4958755;28;89084;-80
2023/08/18 11:36:09;;;;;;;;;;;;;;;;;;4957421;28;90103;-78
2023/08/18 11:38:34;;;;;;;;;;;;;;;;;;4961951;28;89745;-83
2023/08/18 11:40:59;;;;;;;;;;;;;;;;;;4960859;28;90971;-66
2023/08/18 11:43:25;;;;;;;;;;;;;;;;;;4956706;28;90294;-66
2023/08/18 11:45:50;;;;;;;;;;;;;;;;;;4957784;28;90259;-63
2023/08/18 11:48:18;;;;;;;;;;;;;;;;;;4961348;28;89778;-66
2023/08/18 11:50:43;;;;;;;;;;;;;;;;;;4957173;28;90740;-68
2023/08/18 11:53:09;;;;;;;;;;;;;;;;;;4955898;28;90120;-67
2023/08/18 11:55:34;;;;;;;;;;;;;;;;;;4961712;28;89463;-72
2023/08/18 11:58:07;;;;;;;;;;;;;;;;;;4956788;28;89947;-74
2023/08/18 12:00:36;;;;;;;;;;;;;;;;;;4957480;28;90046;-65
2023/08/18 12:03:03;;;;;;;;;;;;;;;;;;4959585;28;89532;-67
2023/08/18 12:05:28;;;;;;;;;;;;;;;;;;4955119;28;90607;-67
2023/08/18 12:07:53;;;;;;;;;;;;;;;;;;4959952;28;89545;-79
2023/08/18 12:10:19;;;;;;;;;;;;;;;;;;4957546;28;89483;-73
2023/08/18 12:12:51;;;;;;;;;;;;;;;;;;4955599;28;90151;-72
2023/08/18 12:15:16;;;;;;;;;;;;;;;;;;4954614;28;89788;-77
2023/08/18 12:17:41;;;;;;;;;;;;;;;;;;4958391;28;89779;-74
2023/08/18 12:20:07;;;;;;;;;;;;;;;;;;4960317;28;89202;-64
2023/08/18 12:22:32;;;;;;;;;;;;;;;;;;4962095;28;90096;-65
2023/08/18 12:24:58;;;;;;;;;;;;;;;;;;4958352;28;89814;-63
2023/08/18 12:27:26;;;;;;;;;;;;;;;;;;4955497;28;89815;-68
2023/08/18 12:29:51;;;;;;;;;;;;;;;;;;4962810;28;91617;-71
2023/08/18 12:32:16;;;;;;;;;;;;;;;;;;4956245;28;89424;-66
2023/08/18 12:34:42;;;;;;;;;;;;;;;;;;4970089;28;90604;-65
2023/08/18 12:37:07;;;;;;;;;;;;;;;;;;4954049;28;90585;-66
2023/08/18 12:39:33;;;;;;;;;;;;;;;;;;4958625;28;90365;-71
2023/08/18 12:41:58;;;;;;;;;;;;;;;;;;4959906;28;89308;-69
2023/08/18 12:44:24;;;;;;;;;;;;;;;;;;4959418;28;89514;-68
2023/08/18 12:46:49;;;;;;;;;;;;;;;;;;4954186;28;89107;-64
2023/08/18 12:49:14;;;;;;;;;;;;;;;;;;4972231;28;90948;-62
2023/08/18 12:51:39;;;;;;;;;;;;;;;;;;4958360;28;89671;-76
2023/08/18 12:54:05;;;;;;;;;;;;;;;;;;4954596;28;89625;-70
2023/08/18 12:56:30;;;;;;;;;;;;;;;;;;4958409;28;89771;-80
2023/08/18 12:58:55;;;;;;;;;;;;;;;;;;4957861;28;89141;-74
2023/08/18 13:01:20;;;;;;;;;;;;;;;;;;4956637;28;89525;-71
2023/08/18 13:03:45;;;;;;;;;;;;;;;;;;4959463;28;89563;-75
2023/08/18 13:06:11;;;;;;;;;;;;;;;;;;4967038;28;90103;-75
2023/08/18 13:08:36;;;;;;;;;;;;;;;;;;4963922;28;89569;-73
2023/08/18 13:11:01;;;;;;;;;;;;;;;;;;4960624;28;89734;-76
2023/08/18 13:13:26;;;;;;;;;;;;;;;;;;4957088;28;89869;-79
2023/08/18 13:15:52;;;;;;;;;;;;;;;;;;4955536;28;90636;-74
2023/08/18 13:18:17;;;;;;;;;;;;;;;;;;4956797;28;89072;-75
2023/08/18 13:20:42;;;;;;;;;;;;;;;;;;4955679;28;89070;-79
2023/08/18 13:23:07;;;;;;;;;;;;;;;;;;4957098;28;89573;-79
2023/08/18 13:25:34;;;;;;;;;;;;;;;;;;4961120;28;90506;-78
2023/08/18 13:28:00;;;;;;;;;;;;;;;;;;4963732;28;89813;-71
2023/08/18 13:30:25;;;;;;;;;;;;;;;;;;4959792;28;90513;-70
2023/08/18 13:32:50;;;;;;;;;;;;;;;;;;4962853;28;89482;-68
2023/08/18 13:35:15;;;;;;;;;;;;;;;;;;4957765;28;89481;-71
2023/08/18 13:37:41;;;;;;;;;;;;;;;;;;4957528;28;89230;-67
2023/08/18 13:40:06;;;;;;;;;;;;;;;;;;4965986;28;89067;-76
2023/08/18 13:42:32;;;;;;;;;;;;;;;;;;4959322;28;89536;-69
2023/08/18 13:44:57;;;;;;;;;;;;;;;;;;4957315;28;89250;-77
2023/08/18 13:47:22;;;;;;;;;;;;;;;;;;4957556;28;89295;-72
2023/08/18 13:49:47;;;;;;;;;;;;;;;;;;4955298;28;89978;-65
2023/08/18 13:52:12;;;;;;;;;;;;;;;;;;4954063;28;89278;-72
2023/08/18 13:54:38;;;;;;;;;;;;;;;;;;4955764;28;89948;-65
2023/08/18 13:57:03;;;;;;;;;;;;;;;;;;4957283;28;91802;-68
2023/08/18 14:02:31;;;;;;;;;;;;;;;;;;4954812;28;89677;-64
2023/08/18 14:04:56;;;;;;;;;;;;;;;;;;4959864;28;92887;-77
2023/08/18 14:07:21;;;;;;;;;;;;;;;;;;4958941;28;89664;-76
2023/08/18 14:09:47;;;;;;;;;;;;;;;;;;4960551;28;89729;-70
2023/08/18 14:12:12;;;;;;;;;;;;;;;;;;4952130;28;89637;-77
2023/08/18 14:14:37;;;;;;;;;;;;;;;;;;4953749;28;89581;-79
2023/08/18 14:17:06;;;;;;;;;;;;;;;;;;4956417;28;89851;-67
2023/08/18 14:19:31;;;;;;;;;;;;;;;;;;4953257;28;89096;-78
2023/08/18 14:21:57;;;;;;;;;;;;;;;;;;4958445;28;89752;-75
2023/08/18 15:38:56;;;;;;;;;;;;;;;;;;5013260;27;85176;-70
2023/08/18 15:41:21;;;;;;;;;;;;;;;;;;5025635;27;89605;-72
2023/08/18 15:43:47;;;;;;;;;;;;;;;;;;5011245;27;90138;-66
2023/08/18 15:46:12;;;;;;;;;;;;;;;;;;5012492;27;89397;-66
2023/08/18 15:48:37;;;;;;;;;;;;;;;;;;5012286;27;89534;-69
2023/08/18 15:51:03;;;;;;;;;;;;;;;;;;4997263;27;91926;-66
2023/08/18 15:53:28;;;;;;;;;;;;;;;;;;5009476;27;89161;-63
2023/08/18 15:55:53;;;;;;;;;;;;;;;;;;4963585;27;102599;-65
2023/08/18 15:58:20;;;;;;;;;;;;;;;;;;4974974;28;89596;-64
2023/08/18 16:00:45;;;;;;;;;;;;;;;;;;4971194;28;90218;-64
2023/08/18 16:03:11;;;;;;;;;;;;;;;;;;4971760;28;90143;-63
2023/08/18 16:05:37;;;;;;;;;;;;;;;;;;4974306;28;90461;-66
2023/08/18 16:08:02;;;;;;;;;;;;;;;;;;4974314;27;90224;-65
2023/08/18 16:10:30;;;;;;;;;;;;;;;;;;4968670;28;90059;-65
2023/08/18 16:12:56;;;;;;;;;;;;;;;;;;4971030;28;90390;-66
2023/08/18 16:15:21;;;;;;;;;;;;;;;;;;4970704;28;91707;-65
2023/08/18 16:17:49;;;;;;;;;;;;;;;;;;4972259;28;89205;-69
2023/08/18 16:20:14;;;;;;;;;;;;;;;;;;4974078;28;89400;-67
2023/08/18 16:22:39;;;;;;;;;;;;;;;;;;4972534;28;89720;-70
2023/08/18 16:25:05;;;;;;;;;;;;;;;;;;4969349;28;89480;-65
2023/08/18 16:27:30;;;;;;;;;;;;;;;;;;4972916;28;91122;-70
2023/08/18 16:29:55;;;;;;;;;;;;;;;;;;4969887;28;89986;-72
2023/08/18 16:32:21;;;;;;;;;;;;;;;;;;4967776;28;89150;-64
2023/08/18 16:34:49;;;;;;;;;;;;;;;;;;4952563;28;89584;-67
2023/08/18 16:37:14;;;;;;;;;;;;;;;;;;4952913;28;89794;-66
2023/08/18 16:39:40;;;;;;;;;;;;;;;;;;4954307;28;89609;-65
2023/08/18 16:42:05;;;;;;;;;;;;;;;;;;4955884;28;89676;-64
2023/08/18 16:44:30;;;;;;;;;;;;;;;;;;4952314;28;89115;-68
2023/08/18 16:46:55;;;;;;;;;;;;;;;;;;4955248;28;90830;-65
2023/08/18 16:49:21;;;;;;;;;;;;;;;;;;4943227;28;89723;-65
2023/08/18 16:51:47;;;;;;;;;;;;;;;;;;4941533;28;89147;-66
2023/08/18 16:54:13;;;;;;;;;;;;;;;;;;4942038;28;90668;-64
2023/08/18 16:56:38;;;;;;;;;;;;;;;;;;4940472;28;89588;-63
2023/08/18 16:59:04;;;;;;;;;;;;;;;;;;4947300;28;90053;-66
2023/08/18 17:01:29;;;;;;;;;;;;;;;;;;4939012;28;90202;-64
2023/08/18 17:03:54;;;;;;;;;;;;;;;;;;4946789;28;90964;-72
2023/08/18 17:06:19;;;;;;;;;;;;;;;;;;4958148;28;89550;-64
2023/08/18 17:08:44;;;;;;;;;;;;;;;;;;4943408;28;91258;-66
2023/08/18 17:11:10;;;;;;;;;;;;;;;;;;4941310;28;89456;-63
2023/08/18 17:13:35;;;;;;;;;;;;;;;;;;4937011;28;90668;-66
2023/08/18 17:16:00;;;;;;;;;;;;;;;;;;4940481;28;89167;-64
2023/08/18 17:18:25;;;;;;;;;;;;;;;;;;4938236;28;90121;-64
2023/08/18 17:20:51;;;;;;;;;;;;;;;;;;4940530;28;89975;-67
2023/08/18 17:23:17;;;;;;;;;;;;;;;;;;4939120;28;89565;-72
2023/08/18 17:25:44;;;;;;;;;;;;;;;;;;4940639;28;88970;-70
2023/08/18 17:28:09;;;;;;;;;;;;;;;;;;4940426;28;89646;-66
2023/08/18 17:30:34;;;;;;;;;;;;;;;;;;4937071;28;89064;-70
2023/08/18 17:33:00;;;;;;;;;;;;;;;;;;4937670;28;89666;-69
2023/08/18 17:35:25;;;;;;;;;;;;;;;;;;4933569;28;89667;-72
2023/08/18 17:37:50;;;;;;;;;;;;;;;;;;4936540;28;89500;-67
2023/08/18 17:40:16;;;;;;;;;;;;;;;;;;4941180;28;90838;-67
2023/08/18 17:42:44;;;;;;;;;;;;;;;;;;4936089;28;90433;-66
2023/08/18 17:45:09;;;;;;;;;;;;;;;;;;4943448;28;89367;-65
2023/08/18 17:47:34;;;;;;;;;;;;;;;;;;4938781;28;91013;-66
2023/08/18 17:50:00;;;;;;;;;;;;;;;;;;4941414;28;90249;-65
2023/08/18 17:52:25;;;;;;;;;;;;;;;;;;4941983;28;89154;-69